Gentle Seas — D5EU2 — position and weather

sailwx.info

Track history (hours):
 
Tides and Currents Weather Stations Pressure Air Temp Water Temp Dewpoint Dewpoint Depression Visibility Wind Speed Wind Dir Waves Ship Positions

Gentle Seas

Last reported at 2018-Jun-01 00:06 UTC. Time now 2018-Jun-25 19:07 UTC.
Position N 36°58' E 001°51'.
Warning: this ship's position is 24 days out of date.

Length 199 m; draft 12.8 m.

Type: Cargo ship. MMSI: 636016161.

Date/timePositionNaut miles runAvg speedWind from/ knotsBaromVisibWave heightAir tempDewpointWater temp
2018-Jun-01 00:06N 36°58' E 001°51'112.9
2018-Jun-01 00:00N 36°58' E 001°49'713.0
2018-May-31 23:30N 36°56' E 001°41'613.1
2018-May-31 23:00N 36°55' E 001°33'1913.1
2018-May-31 21:34N 36°50' E 001°11'113.0
2018-May-31 21:30N 36°50' E 001°10'712.9
2018-May-31 20:58N 36°48' E 001°02'612.8
2018-May-31 20:30N 36°47' E 000°54'612.7
2018-May-31 20:00N 36°45' E 000°47'912.5
2018-May-31 19:17N 36°43' E 000°36'412.5
2018-May-31 18:59N 36°42' E 000°31'612.7
2018-May-31 18:30N 36°41' E 000°24'613.0
2018-May-31 18:00N 36°39' E 000°16'713.1
2018-May-31 17:30N 36°37' E 000°08'4413.0
2018-May-31 14:07N 36°26' W 000°45'112.9
2018-May-31 14:00N 36°26' W 000°47'20613.0
2018-May-30 22:07N 36°01' W 005°01'213.3
2018-May-30 21:59N 36°02' W 005°03'613.6
2018-May-30 21:30N 36°03' W 005°11'715.2
2018-May-30 21:00N 36°05' W 005°20'5 9.9
2018-May-30 20:30N 36°08' W 005°24'1 1.9
2018-May-30 19:56N 36°09' W 005°25'0 0.0
2018-May-30 19:08N 36°09' W 005°25'0 0.0
2018-May-30 18:56N 36°09' W 005°25'0 0.1
2018-May-30 17:02N 36°09' W 005°24'0 0.1
2018-May-30 16:44N 36°09' W 005°24'0 0.2
2018-May-30 16:17N 36°09' W 005°25'0 0.2
2018-May-30 15:53N 36°09' W 005°25'0 0.2
2018-May-30 15:26N 36°09' W 005°25'0 0.1
2018-May-30 14:59N 36°09' W 005°24'0 0.1
2018-May-30 14:26N 36°09' W 005°25'0 0.1
2018-May-30 13:59N 36°09' W 005°24'0 0.1
2018-May-30 13:26N 36°09' W 005°24'0 0.0
2018-May-30 08:26N 36°09' W 005°25'0 0.1
2018-May-30 07:53N 36°09' W 005°25'1 1.2
2018-May-30 07:08N 36°09' W 005°24'1 5.3
2018-May-30 06:59N 36°08' W 005°23'4 7.3
2018-May-30 06:28N 36°04' W 005°22'4 8.3
2018-May-30 06:00N 36°01' W 005°22'611.2
2018-May-30 05:31N 35°58' W 005°28'510.3
2018-May-30 05:00N 35°56' W 005°34'713.3
2018-May-30 04:30N 35°56' W 005°42'714.1
2018-May-30 04:00N 35°55' W 005°51'714.4
2018-May-30 03:30N 35°54' W 005°60'  
2018-May-27 12:32N 37°52' W 022°12'612.2
2018-May-27 12:01N 37°53' W 022°20'010.4
2018-May-27 12:00N 37°53' W 022°20'912.1
2018-May-27 11:18N 37°54' W 022°31'512.1
2018-May-27 10:54N 37°54' W 022°37'2812.0
2018-May-27 08:36N 37°57' W 023°11'212.0
2018-May-27 08:25N 37°57' W 023°14'512.0
2018-May-27 08:00N 37°58' W 023°21'812.2
2018-May-27 07:18N 37°58' W 023°31'411.9
2018-May-27 07:00N 37°59' W 023°36'712.2
2018-May-27 06:25N 37°60' W 023°45'612.4
2018-May-27 05:58N 38°00' W 023°52'612.3
2018-May-27 05:30N 38°01' W 023°59'612.4
2018-May-27 05:00N 38°01' W 024°07'612.1
2018-May-27 04:30N 38°02' W 024°15'612.1
2018-May-27 04:00N 38°03' W 024°22'612.1
2018-May-27 03:30N 38°03' W 024°30'612.3
2018-May-27 03:00N 38°04' W 024°38'612.2
2018-May-27 02:30N 38°04' W 024°45'612.3
2018-May-27 02:01N 38°05' W 024°53'612.4
2018-May-27 01:30N 38°06' W 025°01'612.2
2018-May-27 01:00N 38°06' W 025°09'612.3
2018-May-27 00:30N 38°06' W 025°16'612.3
2018-May-27 00:00N 38°06' W 025°24'612.3
2018-May-26 23:30N 38°07' W 025°32'612.4
2018-May-26 23:00N 38°07' W 025°40'612.2
2018-May-26 22:30N 38°07' W 025°48'612.1
2018-May-26 21:59N 38°08' W 025°55'612.3
2018-May-26 21:31N 38°08' W 026°03'612.1
2018-May-26 21:00N 38°08' W 026°11'612.2
2018-May-26 20:30N 38°09' W 026°18'612.6
2018-May-26 20:01N 38°09' W 026°26'612.5
2018-May-26 19:30N 38°09' W 026°34'612.6
2018-May-26 19:00N 38°09' W 026°43'612.7
2018-May-26 18:30N 38°10' W 026°50'713.0
2018-May-26 18:00N 38°10' W 026°59'612.5
2018-May-26 17:30N 38°09' W 027°07'612.4
2018-May-26 17:00N 38°09' W 027°15'612.4
2018-May-26 16:30N 38°08' W 027°22'612.3
2018-May-26 16:00N 38°08' W 027°30'612.2
2018-May-26 15:30N 38°07' W 027°38'611.9
2018-May-26 15:00N 38°07' W 027°46'612.8
2018-May-26 14:30N 38°07' W 027°54'612.7
2018-May-26 14:00N 38°08' W 028°02'612.8
2018-May-26 13:30N 38°08' W 028°10'612.4
2018-May-26 13:00N 38°08' W 028°18'612.6
2018-May-26 12:30N 38°08' W 028°26'612.6
2018-May-26 12:00N 38°08' W 028°34'612.4
2018-May-26 11:30N 38°08' W 028°42'612.9
2018-May-26 11:00N 38°08' W 028°50'612.8
2018-May-26 10:30N 38°08' W 028°58'612.6
2018-May-26 10:00N 38°07' W 029°06'612.8
2018-May-26 09:30N 38°07' W 029°14'612.8
2018-May-26 09:00N 38°08' W 029°22'612.8
2018-May-26 08:30N 38°07' W 029°30'612.7
2018-May-26 08:01N 38°07' W 029°38'612.7
2018-May-26 07:30N 38°07' W 029°46'613.0
2018-May-26 07:00N 38°07' W 029°55'713.1
2018-May-26 06:30N 38°07' W 030°03'1513.1
2018-May-26 05:22N 38°07' W 030°22'412.5
2018-May-26 05:00N 38°06' W 030°28'612.2
2018-May-26 04:30N 38°06' W 030°35'912.1
2018-May-26 03:48N 38°06' W 030°46'412.4
2018-May-26 03:30N 38°06' W 030°51'713.1
2018-May-26 03:01N 38°06' W 030°59'612.7
2018-May-26 02:30N 38°05' W 031°07'612.7
2018-May-26 02:00N 38°05' W 031°15'1112.8
2018-May-26 01:11N 38°05' W 031°29'212.7
2018-May-26 01:00N 38°05' W 031°32'1612.5
2018-May-25 23:46N 38°04' W 031°51'912.7
2018-May-25 23:04N 38°04' W 032°03'313.0
2018-May-25 22:48N 38°04' W 032°07'1212.4
2018-May-25 21:50N 38°04' W 032°22'  
Track history (hours):
 
Tides and Currents Weather Stations Pressure Air Temp Water Temp Dewpoint Dewpoint Depression Visibility Wind Speed Wind Dir Waves Ship Positions

Gentle Seas

Last reported at 2018-Jun-01 00:06 UTC. Time now 2018-Jun-25 19:07 UTC.
Position N 36°58' E 001°51'.
Warning: this ship's position is 24 days out of date.

Length 199 m; draft 12.8 m.

Type: Cargo ship. MMSI: 636016161.

Date/timePositionNaut miles runAvg speedWind from/ knotsBaromVisibWave heightAir tempDewpointWater temp
2018-Jun-01 00:06N 36°58' E 001°51'112.9
2018-Jun-01 00:00N 36°58' E 001°49'713.0
2018-May-31 23:30N 36°56' E 001°41'613.1
2018-May-31 23:00N 36°55' E 001°33'1913.1
2018-May-31 21:34N 36°50' E 001°11'113.0
2018-May-31 21:30N 36°50' E 001°10'712.9
2018-May-31 20:58N 36°48' E 001°02'612.8
2018-May-31 20:30N 36°47' E 000°54'612.7
2018-May-31 20:00N 36°45' E 000°47'912.5
2018-May-31 19:17N 36°43' E 000°36'412.5
2018-May-31 18:59N 36°42' E 000°31'612.7
2018-May-31 18:30N 36°41' E 000°24'613.0
2018-May-31 18:00N 36°39' E 000°16'713.1
2018-May-31 17:30N 36°37' E 000°08'4413.0
2018-May-31 14:07N 36°26' W 000°45'112.9
2018-May-31 14:00N 36°26' W 000°47'20613.0
2018-May-30 22:07N 36°01' W 005°01'213.3
2018-May-30 21:59N 36°02' W 005°03'613.6
2018-May-30 21:30N 36°03' W 005°11'715.2
2018-May-30 21:00N 36°05' W 005°20'5 9.9
2018-May-30 20:30N 36°08' W 005°24'1 1.9
2018-May-30 19:56N 36°09' W 005°25'0 0.0
2018-May-30 19:08N 36°09' W 005°25'0 0.0
2018-May-30 18:56N 36°09' W 005°25'0 0.1
2018-May-30 17:02N 36°09' W 005°24'0 0.1
2018-May-30 16:44N 36°09' W 005°24'0 0.2
2018-May-30 16:17N 36°09' W 005°25'0 0.2
2018-May-30 15:53N 36°09' W 005°25'0 0.2
2018-May-30 15:26N 36°09' W 005°25'0 0.1
2018-May-30 14:59N 36°09' W 005°24'0 0.1
2018-May-30 14:26N 36°09' W 005°25'0 0.1
2018-May-30 13:59N 36°09' W 005°24'0 0.1
2018-May-30 13:26N 36°09' W 005°24'0 0.0
2018-May-30 08:26N 36°09' W 005°25'0 0.1
2018-May-30 07:53N 36°09' W 005°25'1 1.2
2018-May-30 07:08N 36°09' W 005°24'1 5.3
2018-May-30 06:59N 36°08' W 005°23'4 7.3
2018-May-30 06:28N 36°04' W 005°22'4 8.3
2018-May-30 06:00N 36°01' W 005°22'611.2
2018-May-30 05:31N 35°58' W 005°28'510.3
2018-May-30 05:00N 35°56' W 005°34'713.3
2018-May-30 04:30N 35°56' W 005°42'714.1
2018-May-30 04:00N 35°55' W 005°51'714.4
2018-May-30 03:30N 35°54' W 005°60'  
2018-May-27 12:32N 37°52' W 022°12'612.2
2018-May-27 12:01N 37°53' W 022°20'010.4
2018-May-27 12:00N 37°53' W 022°20'912.1
2018-May-27 11:18N 37°54' W 022°31'512.1
2018-May-27 10:54N 37°54' W 022°37'2812.0
2018-May-27 08:36N 37°57' W 023°11'212.0
2018-May-27 08:25N 37°57' W 023°14'512.0
2018-May-27 08:00N 37°58' W 023°21'812.2
2018-May-27 07:18N 37°58' W 023°31'411.9
2018-May-27 07:00N 37°59' W 023°36'712.2
2018-May-27 06:25N 37°60' W 023°45'612.4
2018-May-27 05:58N 38°00' W 023°52'612.3
2018-May-27 05:30N 38°01' W 023°59'612.4
2018-May-27 05:00N 38°01' W 024°07'612.1
2018-May-27 04:30N 38°02' W 024°15'612.1
2018-May-27 04:00N 38°03' W 024°22'612.1
2018-May-27 03:30N 38°03' W 024°30'612.3
2018-May-27 03:00N 38°04' W 024°38'612.2
2018-May-27 02:30N 38°04' W 024°45'612.3
2018-May-27 02:01N 38°05' W 024°53'612.4
2018-May-27 01:30N 38°06' W 025°01'612.2
2018-May-27 01:00N 38°06' W 025°09'612.3
2018-May-27 00:30N 38°06' W 025°16'612.3
2018-May-27 00:00N 38°06' W 025°24'612.3
2018-May-26 23:30N 38°07' W 025°32'612.4
2018-May-26 23:00N 38°07' W 025°40'612.2
2018-May-26 22:30N 38°07' W 025°48'612.1
2018-May-26 21:59N 38°08' W 025°55'612.3
2018-May-26 21:31N 38°08' W 026°03'612.1
2018-May-26 21:00N 38°08' W 026°11'612.2
2018-May-26 20:30N 38°09' W 026°18'612.6
2018-May-26 20:01N 38°09' W 026°26'612.5
2018-May-26 19:30N 38°09' W 026°34'612.6
2018-May-26 19:00N 38°09' W 026°43'612.7
2018-May-26 18:30N 38°10' W 026°50'713.0
2018-May-26 18:00N 38°10' W 026°59'612.5
2018-May-26 17:30N 38°09' W 027°07'612.4
2018-May-26 17:00N 38°09' W 027°15'612.4
2018-May-26 16:30N 38°08' W 027°22'612.3
2018-May-26 16:00N 38°08' W 027°30'612.2
2018-May-26 15:30N 38°07' W 027°38'611.9
2018-May-26 15:00N 38°07' W 027°46'612.8
2018-May-26 14:30N 38°07' W 027°54'612.7
2018-May-26 14:00N 38°08' W 028°02'612.8
2018-May-26 13:30N 38°08' W 028°10'612.4
2018-May-26 13:00N 38°08' W 028°18'612.6
2018-May-26 12:30N 38°08' W 028°26'612.6
2018-May-26 12:00N 38°08' W 028°34'612.4
2018-May-26 11:30N 38°08' W 028°42'612.9
2018-May-26 11:00N 38°08' W 028°50'612.8
2018-May-26 10:30N 38°08' W 028°58'612.6
2018-May-26 10:00N 38°07' W 029°06'612.8
2018-May-26 09:30N 38°07' W 029°14'612.8
2018-May-26 09:00N 38°08' W 029°22'612.8
2018-May-26 08:30N 38°07' W 029°30'612.7
2018-May-26 08:01N 38°07' W 029°38'612.7
2018-May-26 07:30N 38°07' W 029°46'613.0
2018-May-26 07:00N 38°07' W 029°55'713.1
2018-May-26 06:30N 38°07' W 030°03'1513.1
2018-May-26 05:22N 38°07' W 030°22'412.5
2018-May-26 05:00N 38°06' W 030°28'612.2
2018-May-26 04:30N 38°06' W 030°35'912.1
2018-May-26 03:48N 38°06' W 030°46'412.4
2018-May-26 03:30N 38°06' W 030°51'713.1
2018-May-26 03:01N 38°06' W 030°59'612.7
2018-May-26 02:30N 38°05' W 031°07'612.7
2018-May-26 02:00N 38°05' W 031°15'1112.8
2018-May-26 01:11N 38°05' W 031°29'212.7
2018-May-26 01:00N 38°05' W 031°32'1612.5
2018-May-25 23:46N 38°04' W 031°51'912.7
2018-May-25 23:04N 38°04' W 032°03'313.0
2018-May-25 22:48N 38°04' W 032°07'1212.4
2018-May-25 21:50N 38°04' W 032°22'  

Dump ship's entire track history